Time;durP1;ratioP1;P1;durP2;ratioP2;P2;SDS_P1;SDS_P2;PMS_P1;PMS_P2;Temp;Humidity;BMP_temperature;BMP_pressure;BME280_temperature;BME280_humidity;BME280_pressure;Samples;Min_cycle;Max_cycle;Signal;HPM_P1;HPM_P2
2024/01/17 00:00:42;;;;;;;21.00;12.33;;;;;;;-3.02;95.87;100191.09;5050084;28;20031;-65
2024/01/17 00:03:07;;;;;;;27.67;13.20;;;;;;;-3.05;95.90;100186.09;5045325;28;20102;-65
2024/01/17 00:05:33;;;;;;;20.63;13.47;;;;;;;-3.07;95.85;100180.19;5035893;28;20029;-65
2024/01/17 00:07:59;;;;;;;23.43;13.27;;;;;;;-3.09;95.84;100176.03;5040674;28;20029;-65
2024/01/17 00:10:24;;;;;;;22.57;13.30;;;;;;;-3.13;96.02;100165.00;5038203;28;20029;-65
2024/01/17 00:12:50;;;;;;;21.23;12.93;;;;;;;-3.16;96.00;100165.19;5043643;28;20049;-65
2024/01/17 00:15:17;;;;;;;21.30;13.53;;;;;;;-3.20;96.12;100156.75;5046079;28;20033;-65
2024/01/17 00:17:43;;;;;;;23.47;13.27;;;;;;;-3.20;96.22;100158.53;5043404;28;20537;-65
2024/01/17 00:20:08;;;;;;;25.50;13.40;;;;;;;-3.27;96.46;100146.88;5044265;28;20465;-65
2024/01/17 00:22:33;;;;;;;22.60;13.70;;;;;;;-3.23;96.38;100149.16;5046233;28;20460;-65
2024/01/17 00:25:00;;;;;;;23.53;12.97;;;;;;;-3.24;96.57;100149.28;5045716;28;20067;-65
2024/01/17 00:27:26;;;;;;;23.03;12.30;;;;;;;-3.27;96.48;100139.09;5044778;28;20032;-65
2024/01/17 00:29:57;;;;;;;23.27;12.97;;;;;;;-3.31;96.58;100130.66;5046209;28;20048;-64
2024/01/17 00:32:23;;;;;;;24.37;12.83;;;;;;;-3.33;96.69;100131.72;5042955;28;20021;-65
2024/01/17 00:34:48;;;;;;;21.37;13.63;;;;;;;-3.34;96.82;100130.88;5039014;28;20917;-65
2024/01/17 00:37:14;;;;;;;23.50;13.03;;;;;;;-3.31;96.92;100122.06;5041164;28;20108;-65
2024/01/17 00:39:39;;;;;;;24.43;13.67;;;;;;;-3.33;97.09;100119.56;5046586;28;20021;-65
2024/01/17 00:42:06;;;;;;;21.07;13.30;;;;;;;-3.32;97.12;100122.97;5044575;28;20025;-65
2024/01/17 00:44:31;;;;;;;22.73;12.50;;;;;;;-3.33;97.01;100110.94;5041151;28;20032;-65
2024/01/17 00:46:56;;;;;;;21.27;12.77;;;;;;;-3.37;97.20;100105.13;5042353;28;20401;-65
2024/01/17 00:49:22;;;;;;;26.47;13.17;;;;;;;-3.35;97.13;100105.84;5045875;28;20604;-64
2024/01/17 00:51:47;;;;;;;24.03;12.87;;;;;;;-3.36;97.12;100105.94;5041142;28;20158;-65
2024/01/17 00:54:12;;;;;;;18.53;12.17;;;;;;;-3.38;97.19;100098.25;5040509;28;20111;-65
2024/01/17 00:56:39;;;;;;;19.70;12.73;;;;;;;-3.36;97.38;100085.19;5040114;28;20103;-64
2024/01/17 00:59:04;;;;;;;20.13;12.77;;;;;;;-3.36;97.21;100083.41;5036686;28;20037;-64
2024/01/17 01:01:29;;;;;;;25.93;13.23;;;;;;;-3.37;97.17;100068.78;5041696;28;20029;-64
2024/01/17 01:03:55;;;;;;;23.27;12.83;;;;;;;-3.33;97.19;100066.81;5039893;28;20021;-65
2024/01/17 01:06:20;;;;;;;25.40;12.40;;;;;;;-3.33;97.19;100065.03;5036235;28;20561;-64
2024/01/17 01:08:45;;;;;;;22.97;12.90;;;;;;;-3.31;97.35;100057.16;5037229;28;20556;-65
2024/01/17 01:11:11;;;;;;;19.77;11.73;;;;;;;-3.28;97.40;100051.75;5046998;28;20060;-65
2024/01/17 01:13:36;;;;;;;21.97;12.63;;;;;;;-3.30;97.31;100059.66;5037858;28;20041;-65
2024/01/17 01:16:03;;;;;;;22.70;11.97;;;;;;;-3.27;97.36;100066.41;5043212;28;20029;-64
2024/01/17 01:18:29;;;;;;;21.80;11.97;;;;;;;-3.28;97.20;100062.97;5044019;28;20082;-64
2024/01/17 01:20:55;;;;;;;23.70;12.50;;;;;;;-3.27;97.36;100066.41;5049684;28;20058;-64
2024/01/17 01:23:24;;;;;;;18.43;12.33;;;;;;;-3.27;97.25;100062.03;5035978;28;20028;-64
2024/01/17 01:25:49;;;;;;;23.05;11.45;;;;;;;-3.29;97.02;100058.72;5038933;28;20595;-65
2024/01/17 01:28:15;;;;;;;19.27;11.47;;;;;;;-3.30;97.08;100056.22;5053237;28;20551;-65
2024/01/17 01:30:41;;;;;;;17.60;11.50;;;;;;;-3.31;97.14;100055.38;5045530;28;20020;-65
2024/01/17 01:33:06;;;;;;;19.77;11.77;;;;;;;-3.30;97.02;100048.44;5049960;28;20044;-65
2024/01/17 01:35:31;;;;;;;23.00;11.40;;;;;;;-3.33;97.11;100044.28;5041043;28;20078;-65
2024/01/17 01:37:57;;;;;;;18.50;11.40;;;;;;;-3.26;96.92;100050.72;5050253;28;20012;-65
2024/01/17 01:40:22;;;;;;;20.13;11.50;;;;;;;-3.24;97.16;100042.81;5042426;28;20048;-65
2024/01/17 01:42:48;;;;;;;22.60;11.53;;;;;;;-3.21;97.18;100042.63;5033004;28;20024;-65
2024/01/17 01:45:13;;;;;;;19.93;12.20;;;;;;;-3.24;97.04;100037.63;5040013;28;20909;-64
2024/01/17 01:47:38;;;;;;;18.37;11.20;;;;;;;-3.23;96.89;100047.09;5042444;28;20049;-64
2024/01/17 01:50:05;;;;;;;17.43;11.27;;;;;;;-3.26;96.88;100044.69;5038123;28;20040;-64
2024/01/17 01:52:35;;;;;;;20.10;11.47;;;;;;;-3.32;96.67;100039.91;5040697;28;20033;-64
2024/01/17 01:55:02;;;;;;;17.67;10.83;;;;;;;-3.30;96.74;100044.06;5043931;28;20032;-64
2024/01/17 01:57:29;;;;;;;20.10;11.47;;;;;;;-3.30;96.67;100035.44;5040623;28;20048;-64
2024/01/17 01:59:55;;;;;;;17.70;11.37;;;;;;;-3.31;96.79;100029.44;5030383;28;20032;-65
2024/01/17 02:02:22;;;;;;;18.93;11.13;;;;;;;-3.33;96.71;100036.50;5037349;28;20033;-64
2024/01/17 02:04:47;;;;;;;20.00;11.37;;;;;;;-3.34;96.83;100029.63;5041056;28;20029;-65
2024/01/17 02:07:14;;;;;;;18.27;11.47;;;;;;;-3.35;96.76;100020.19;5037291;28;20028;-64
2024/01/17 02:09:40;;;;;;;19.63;10.97;;;;;;;-3.38;96.91;100020.41;5050149;28;21523;-64
2024/01/17 02:12:07;;;;;;;20.10;11.20;;;;;;;-3.40;96.62;100018.84;5032609;28;20112;-65
2024/01/17 02:14:32;;;;;;;19.43;10.63;;;;;;;-3.42;96.67;100008.56;5038965;28;20031;-65
2024/01/17 02:16:58;;;;;;;19.80;11.33;;;;;;;-3.47;96.88;100000.22;5042484;28;20021;-65
2024/01/17 02:19:26;;;;;;;17.93;10.43;;;;;;;-3.41;96.83;100001.59;5038801;28;20111;-65
2024/01/17 02:21:51;;;;;;;16.87;10.30;;;;;;;-3.41;96.71;99999.84;5042232;28;20040;-64
2024/01/17 02:24:23;;;;;;;20.47;11.10;;;;;;;-3.41;96.71;99991.22;5046008;28;20029;-64
2024/01/17 02:26:49;;;;;;;17.70;11.47;;;;;;;-3.42;96.51;99984.38;5048371;28;20657;-64
2024/01/17 02:29:14;;;;;;;20.20;11.20;;;;;;;-3.41;96.71;99983.44;5039462;28;20033;-64
2024/01/17 02:31:40;;;;;;;18.43;10.70;;;;;;;-3.44;96.53;99977.53;5043382;28;20029;-64
2024/01/17 02:34:05;;;;;;;19.07;11.43;;;;;;;-3.42;97.06;99979.19;5038144;28;20636;-64
2024/01/17 02:36:31;;;;;;;22.20;11.07;;;;;;;-3.42;96.43;99969.63;5031109;28;20421;-64
2024/01/17 02:38:56;;;;;;;19.87;10.90;;;;;;;-3.41;96.41;99968.69;5050412;28;20082;-64
2024/01/17 02:41:21;;;;;;;19.20;10.73;;;;;;;-3.41;96.53;99965.28;5038083;28;20504;-64
2024/01/17 02:43:47;;;;;;;20.73;10.70;;;;;;;-3.41;96.23;99957.47;5050198;28;20020;-64
2024/01/17 02:46:12;;;;;;;18.07;11.10;;;;;;;-3.42;96.36;99948.88;5033134;28;20017;-64
2024/01/17 02:48:38;;;;;;;21.43;11.10;;;;;;;-3.42;96.43;99946.28;5040118;28;20036;-65
2024/01/17 02:51:03;;;;;;;20.30;11.23;;;;;;;-3.42;96.27;99950.63;5038918;28;20347;-64
2024/01/17 02:53:28;;;;;;;20.10;10.73;;;;;;;-3.42;96.24;99941.06;5043857;28;20573;-65
2024/01/17 02:55:54;;;;;;;21.00;11.23;;;;;;;-3.47;96.25;99931.00;5038582;28;20022;-64
2024/01/17 02:58:19;;;;;;;17.03;10.93;;;;;;;-3.46;96.21;99939.63;5035639;28;20104;-64
2024/01/17 03:00:44;;;;;;;21.63;11.40;;;;;;;-3.49;96.35;99937.22;5033229;28;20021;-64
2024/01/17 03:03:10;;;;;;;17.37;10.50;;;;;;;-3.50;96.23;99936.38;5038698;28;20035;-65
2024/01/17 03:05:37;;;;;;;19.00;10.67;;;;;;;-3.50;96.32;99931.19;5043256;28;20028;-64
2024/01/17 03:08:04;;;;;;;18.60;10.70;;;;;;;-3.51;96.36;99926.09;5037564;28;20028;-65
2024/01/17 03:10:30;;;;;;;20.47;10.70;;;;;;;-3.48;96.34;99921.53;5035911;28;20020;-64
2024/01/17 03:12:56;;;;;;;20.83;10.63;;;;;;;-3.48;96.40;99903.38;5040525;28;20374;-64
2024/01/17 03:15:22;;;;;;;20.47;11.10;;;;;;;-3.44;96.44;99902.25;5036680;28;20036;-64
2024/01/17 03:17:47;;;;;;;19.47;10.80;;;;;;;-3.44;96.44;99897.06;5039439;28;20023;-65
2024/01/17 03:20:12;;;;;;;16.47;10.37;;;;;;;-3.45;96.48;99895.41;5039406;28;20056;-65
2024/01/17 03:22:39;;;;;;;20.50;10.53;;;;;;;-3.47;96.29;99889.50;5045952;28;20025;-65
2024/01/17 03:25:06;;;;;;;17.83;10.30;;;;;;;-3.49;96.33;99895.69;5041162;28;20414;-65
2024/01/17 03:27:31;;;;;;;19.13;10.87;;;;;;;-3.55;96.24;99883.97;5045823;28;20110;-65
2024/01/17 03:29:57;;;;;;;21.77;10.97;;;;;;;-3.60;96.24;99875.69;5041127;28;20621;-64
2024/01/17 03:32:22;;;;;;;15.93;10.17;;;;;;;-3.63;96.31;99862.09;5043502;28;20048;-64
2024/01/17 03:34:47;;;;;;;18.83;10.50;;;;;;;-3.67;96.27;99865.81;5044828;28;20028;-64
2024/01/17 03:37:13;;;;;;;16.23;10.50;;;;;;;-3.69;96.40;99862.50;5049302;28;20035;-65
2024/01/17 03:39:42;;;;;;;23.67;11.40;;;;;;;-3.69;96.40;99857.31;5038215;28;20032;-65
2024/01/17 03:42:07;;;;;;;18.85;10.70;;;;;;;-3.70;96.42;99848.72;5038211;28;20029;-65
2024/01/17 03:44:33;;;;;;;17.57;10.23;;;;;;;-3.67;96.50;99834.69;5038166;28;20029;-65
2024/01/17 03:46:58;;;;;;;19.40;10.73;;;;;;;-3.67;96.61;99830.34;5035962;28;20087;-65
2024/01/17 03:49:23;;;;;;;18.33;10.60;;;;;;;-3.63;96.65;99833.53;5039163;28;20106;-65
2024/01/17 03:51:49;;;;;;;18.10;10.73;;;;;;;-3.63;96.78;99821.41;5035809;28;20535;-65
2024/01/17 03:54:14;;;;;;;22.50;11.10;;;;;;;-3.61;96.68;99814.34;5037317;28;20067;-64
2024/01/17 03:56:39;;;;;;;17.47;10.20;;;;;;;-3.57;96.71;99817.56;5038115;28;20029;-65
2024/01/17 03:59:05;;;;;;;18.53;10.33;;;;;;;-3.56;96.94;99814.03;5034080;28;20029;-65
2024/01/17 04:01:31;;;;;;;17.10;10.20;;;;;;;-3.54;96.87;99805.19;5041001;28;20041;-65
2024/01/17 04:03:56;;;;;;;16.37;10.30;;;;;;;-3.55;96.84;99792.31;5039164;28;20103;-65
2024/01/17 04:06:22;;;;;;;21.10;11.13;;;;;;;-3.53;96.69;99795.63;5042505;28;20021;-65
2024/01/17 04:08:48;;;;;;;18.13;10.03;;;;;;;-3.58;96.60;99777.81;5044448;28;20032;-65
2024/01/17 04:11:13;;;;;;;16.03;10.00;;;;;;;-3.57;96.58;99776.88;5052868;28;20032;-65
2024/01/17 04:13:41;;;;;;;19.27;10.80;;;;;;;-3.56;96.50;99772.50;5045192;28;20052;-65
2024/01/17 04:16:07;;;;;;;17.10;10.10;;;;;;;-3.58;96.65;99757.03;5051654;28;20032;-65
2024/01/17 04:18:32;;;;;;;17.53;9.87;;;;;;;-3.58;96.50;99749.25;5041049;28;20029;-65
2024/01/17 04:20:58;;;;;;;15.07;9.67;;;;;;;-3.55;96.74;99748.22;5043553;28;20028;-65
2024/01/17 04:23:23;;;;;;;18.33;10.80;;;;;;;-3.55;96.82;99733.47;5044720;28;20371;-65
2024/01/17 04:25:49;;;;;;;17.80;9.57;;;;;;;-3.50;96.86;99731.38;5045544;28;20120;-65
2024/01/17 04:28:14;;;;;;;16.97;10.87;;;;;;;-3.47;96.87;99728.59;5041057;28;20036;-65
2024/01/17 04:30:40;;;;;;;16.37;9.83;;;;;;;-3.44;96.88;99720.59;5044078;28;20048;-65
2024/01/17 04:33:08;;;;;;;15.13;10.20;;;;;;;-3.44;96.67;99715.41;5041795;28;20028;-65
2024/01/17 04:35:34;;;;;;;20.47;10.50;;;;;;;-3.48;96.64;99703.56;5053437;28;20084;-65
2024/01/17 04:37:59;;;;;;;16.70;10.00;;;;;;;-3.50;96.50;99697.66;5053955;28;20031;-65
2024/01/17 04:40:25;;;;;;;19.27;10.10;;;;;;;-3.52;96.33;99693.50;5042092;28;20029;-65
2024/01/17 04:42:50;;;;;;;22.30;10.87;;;;;;;-3.55;96.41;99685.94;5044209;28;20692;-65
2024/01/17 04:45:18;;;;;;;20.40;10.97;;;;;;;-3.57;96.57;99678.28;5051769;28;20584;-65
2024/01/17 04:47:44;;;;;;;15.30;10.47;;;;;;;-3.60;96.33;99673.31;5044003;28;20056;-65
2024/01/17 04:50:12;;;;;;;21.87;11.17;;;;;;;-3.63;96.61;99663.16;5038541;28;20067;-65
2024/01/17 04:52:37;;;;;;;20.03;10.40;;;;;;;-3.62;96.63;99675.19;5046032;28;20021;-65
2024/01/17 04:55:03;;;;;;;20.43;11.13;;;;;;;-3.67;96.79;99674.69;5035121;28;20083;-65
2024/01/17 04:57:30;;;;;;;18.03;11.37;;;;;;;-3.70;96.74;99667.13;5033044;28;20471;-65
2024/01/17 04:59:55;;;;;;;19.77;11.70;;;;;;;-3.72;96.71;99671.59;5034823;28;20036;-65
2024/01/17 05:02:20;;;;;;;16.10;10.53;;;;;;;-3.77;96.79;99665.88;5033940;28;20025;-65
2024/01/17 05:04:45;;;;;;;19.20;11.60;;;;;;;-3.77;96.86;99671.06;5033006;28;20056;-65
2024/01/17 05:07:11;;;;;;;21.17;11.10;;;;;;;-3.80;96.97;99655.72;5031993;28;20045;-65
2024/01/17 05:09:37;;;;;;;17.77;11.03;;;;;;;-3.75;97.11;99651.88;5036212;28;20029;-65
2024/01/17 05:12:03;;;;;;;17.27;10.67;;;;;;;-3.71;97.39;99646.47;5033953;28;20016;-65
2024/01/17 05:14:29;;;;;;;19.10;11.07;;;;;;;-3.68;97.51;99644.50;5038382;28;20047;-65
2024/01/17 05:16:54;;;;;;;19.90;11.00;;;;;;;-3.73;97.45;99633.63;5029897;28;20044;-64
2024/01/17 05:19:19;;;;;;;17.50;10.47;;;;;;;-3.65;97.64;99643.44;5041735;28;20090;-64
2024/01/17 05:21:45;;;;;;;17.50;11.37;;;;;;;-3.64;97.42;99637.31;5035357;28;20041;-65
2024/01/17 05:24:10;;;;;;;19.87;11.03;;;;;;;-3.70;97.44;99637.75;5041832;28;20121;-65
2024/01/17 05:26:35;;;;;;;20.53;11.20;;;;;;;-3.66;97.36;99641.78;5038809;28;20115;-66
2024/01/17 05:29:01;;;;;;;20.83;11.57;;;;;;;-3.67;97.28;99633.19;5047520;28;20513;-66
2024/01/17 05:31:26;;;;;;;23.63;11.53;;;;;;;-3.66;97.23;99605.47;5049292;28;20037;-66
2024/01/17 05:33:52;;;;;;;18.80;11.20;;;;;;;-3.64;97.19;99601.81;5039831;28;20501;-66
2024/01/17 05:36:17;;;;;;;18.10;10.83;;;;;;;-3.63;97.33;99605.25;5050096;28;20129;-66
2024/01/17 05:38:42;;;;;;;19.93;11.30;;;;;;;-3.65;97.37;99592.38;5071891;28;20032;-66
2024/01/17 05:41:09;;;;;;;19.27;10.90;;;;;;;-3.65;97.24;99589.78;5043506;28;20431;-66
2024/01/17 05:43:34;;;;;;;19.83;11.10;;;;;;;-3.67;97.06;99589.06;5045735;28;20052;-66
2024/01/17 05:46:00;;;;;;;19.00;10.90;;;;;;;-3.68;97.13;99590.03;5052049;28;20126;-66
2024/01/17 05:48:25;;;;;;;17.77;10.67;;;;;;;-3.72;96.97;99579.97;5036626;28;20064;-66
2024/01/17 05:50:51;;;;;;;18.17;10.70;;;;;;;-3.70;96.97;99568.56;5036685;28;20037;-66
2024/01/17 05:53:16;;;;;;;18.67;11.03;;;;;;;-3.73;96.94;99557.56;5037069;28;20483;-66
2024/01/17 05:55:42;;;;;;;21.27;11.60;;;;;;;-3.71;97.17;99569.50;5034719;28;20036;-66
2024/01/17 05:58:09;;;;;;;23.23;11.90;;;;;;;-3.74;97.09;99561.94;5041399;28;20183;-66
2024/01/17 06:00:34;;;;;;;18.50;11.17;;;;;;;-3.76;96.92;99566.38;5045490;28;20603;-66
2024/01/17 06:03:00;;;;;;;20.80;12.27;;;;;;;-3.76;96.93;99563.78;5042948;28;20064;-66
2024/01/17 06:05:26;;;;;;;20.80;11.33;;;;;;;-3.83;96.84;99557.38;5036149;28;20115;-66
2024/01/17 06:07:51;;;;;;;21.80;11.90;;;;;;;-3.90;96.81;99546.63;5036182;28;20033;-66
2024/01/17 06:10:17;;;;;;;21.87;11.90;;;;;;;-3.95;96.79;99546.16;5041265;28;20123;-65
2024/01/17 06:12:42;;;;;;;17.10;11.17;;;;;;;-3.97;96.88;99540.25;5047912;28;20032;-66
2024/01/17 06:15:09;;;;;;;20.50;12.00;;;;;;;-3.98;97.08;99538.59;5044983;28;20102;-66
2024/01/17 06:17:35;;;;;;;21.43;11.80;;;;;;;-3.99;97.14;99538.72;5035875;28;20032;-65
2024/01/17 06:20:00;;;;;;;17.63;11.47;;;;;;;-4.01;97.39;99538.81;5041971;28;20028;-66
2024/01/17 06:22:26;;;;;;;21.27;12.73;;;;;;;-4.02;97.48;99528.56;5043409;28;21280;-65
2024/01/17 06:24:51;;;;;;;21.83;12.80;;;;;;;-4.01;97.51;99520.66;5045312;28;20076;-65
2024/01/17 06:27:17;;;;;;;20.70;12.20;;;;;;;-4.01;97.52;99531.03;5039129;28;20049;-65
2024/01/17 06:29:43;;;;;;;20.50;11.13;;;;;;;-3.99;97.62;99525.75;5043990;28;20105;-65
2024/01/17 06:32:09;;;;;;;20.20;12.03;;;;;;;-3.97;97.74;99527.28;5041096;28;20061;-65
2024/01/17 06:34:34;;;;;;;20.57;12.03;;;;;;;-3.93;97.65;99520.09;5042639;28;20123;-66
2024/01/17 06:37:00;;;;;;;18.10;11.63;;;;;;;-3.92;98.02;99509.63;5044075;28;20064;-65
2024/01/17 06:39:26;;;;;;;21.20;12.43;;;;;;;-3.93;98.08;99513.16;5048377;28;20060;-65
2024/01/17 06:41:52;;;;;;;21.03;12.17;;;;;;;-3.96;98.03;99513.38;5041699;28;20037;-65
2024/01/17 06:44:17;;;;;;;22.40;12.03;;;;;;;-3.94;98.03;99505.50;5045238;28;20032;-65
2024/01/17 06:46:42;;;;;;;22.80;11.73;;;;;;;-3.96;97.99;99494.41;5038825;28;20516;-65
2024/01/17 06:49:08;;;;;;;24.90;12.80;;;;;;;-3.96;98.07;99500.41;5038017;28;20028;-65
2024/01/17 06:51:33;;;;;;;23.23;12.73;;;;;;;-3.93;98.04;99494.19;5027300;28;20037;-66
2024/01/17 06:53:59;;;;;;;23.60;13.00;;;;;;;-3.87;98.11;99499.75;5038588;28;20025;-65
2024/01/17 06:56:24;;;;;;;25.87;13.40;;;;;;;-3.86;98.21;99495.38;5040955;28;20027;-65
2024/01/17 06:58:49;;;;;;;22.77;13.13;;;;;;;-3.87;98.13;99496.31;5046891;28;20086;-66
2024/01/17 07:01:15;;;;;;;26.63;13.27;;;;;;;-3.86;98.06;99491.03;5037435;28;20043;-65
2024/01/17 07:03:40;;;;;;;21.53;12.37;;;;;;;-3.84;98.02;99502.09;5040251;28;20473;-65
2024/01/17 07:06:05;;;;;;;20.57;12.83;;;;;;;-3.84;98.09;99485.72;5042011;28;20145;-65
2024/01/17 07:08:31;;;;;;;17.73;11.80;;;;;;;-3.80;98.04;99487.16;5043606;28;20039;-65
2024/01/17 07:10:56;;;;;;;20.17;11.93;;;;;;;-3.79;98.11;99478.41;5042895;28;20021;-65
2024/01/17 07:13:21;;;;;;;20.73;12.43;;;;;;;-3.78;98.14;99474.88;5039787;28;20042;-65
2024/01/17 07:15:47;;;;;;;17.87;11.27;;;;;;;-3.81;98.08;99456.97;5033210;28;20041;-65
2024/01/17 07:18:12;;;;;;;25.43;11.90;;;;;;;-3.71;98.33;99462.31;5039947;28;20039;-65
2024/01/17 07:20:38;;;;;;;18.23;11.93;;;;;;;-3.69;98.23;99452.66;5034396;28;20033;-65
2024/01/17 07:23:03;;;;;;;21.10;11.90;;;;;;;-3.66;98.17;99440.28;5030775;28;20037;-65
2024/01/17 07:25:28;;;;;;;20.37;12.43;;;;;;;-3.64;98.18;99435.78;5035820;28;20033;-66
2024/01/17 07:27:54;;;;;;;20.30;11.93;;;;;;;-3.64;98.07;99428.00;5038574;28;20048;-65
2024/01/17 07:30:19;;;;;;;20.67;11.33;;;;;;;-3.59;98.05;99432.84;5042825;28;20132;-65
2024/01/17 07:32:45;;;;;;;18.40;11.67;;;;;;;-3.58;97.91;99426.72;5039781;28;20453;-65
2024/01/17 07:35:10;;;;;;;18.30;11.47;;;;;;;-3.61;98.04;99417.41;5033396;28;20036;-65
2024/01/17 07:37:36;;;;;;;19.70;11.17;;;;;;;-3.53;97.73;99416.81;5037978;28;20064;-65
2024/01/17 07:40:01;;;;;;;21.13;11.57;;;;;;;-3.52;97.82;99402.91;5038782;28;20058;-66
2024/01/17 07:42:26;;;;;;;18.67;10.87;;;;;;;-3.52;97.69;99401.13;5041881;28;20539;-65
2024/01/17 07:44:52;;;;;;;20.93;11.30;;;;;;;-3.52;97.50;99400.31;5047568;28;20041;-67
2024/01/17 07:47:17;;;;;;;19.67;10.80;;;;;;;-3.55;97.21;99384.97;5037668;28;20095;-65
2024/01/17 07:49:44;;;;;;;18.80;10.70;;;;;;;-3.53;97.68;99391.69;5045526;28;20033;-65
2024/01/17 07:52:10;;;;;;;19.50;11.63;;;;;;;-3.49;97.35;99390.50;5043251;28;20043;-66
2024/01/17 07:54:36;;;;;;;19.53;11.90;;;;;;;-3.51;97.11;99387.22;5042072;28;20037;-65
2024/01/17 07:57:02;;;;;;;20.63;11.10;;;;;;;-3.50;96.79;99382.84;5040482;28;20036;-65
2024/01/17 07:59:30;;;;;;;16.93;10.43;;;;;;;-3.49;96.93;99376.72;5050339;28;20406;-66
2024/01/17 08:01:56;;;;;;;18.60;11.17;;;;;;;-3.54;96.94;99371.06;5045764;28;20040;-65
2024/01/17 08:04:22;;;;;;;17.40;10.47;;;;;;;-3.46;96.78;99373.91;5049693;28;20382;-65
2024/01/17 08:06:47;;;;;;;21.07;11.43;;;;;;;-3.42;96.73;99379.69;5047832;28;20380;-65
2024/01/17 08:09:22;;;;;;;20.23;10.77;;;;;;;-3.40;96.81;99367.41;5049930;28;20047;-65
2024/01/17 08:11:48;;;;;;;20.93;10.87;;;;;;;-3.36;96.70;99361.88;5054176;28;20037;-65
2024/01/17 08:14:13;;;;;;;19.93;11.13;;;;;;;-3.37;96.88;99352.44;5053654;28;20067;-65
2024/01/17 08:16:38;;;;;;;16.13;10.77;;;;;;;-3.32;96.70;99352.91;5044596;28;20417;-65
2024/01/17 08:19:05;;;;;;;17.43;11.17;;;;;;;-3.28;96.66;99346.53;5043468;28;20044;-65
2024/01/17 08:21:31;;;;;;;18.60;11.37;;;;;;;-3.26;96.56;99349.00;5034455;28;20029;-65
2024/01/17 08:23:56;;;;;;;18.23;11.40;;;;;;;-3.26;96.61;99349.81;5044408;28;20091;-65
2024/01/17 08:26:22;;;;;;;18.60;11.77;;;;;;;-3.25;96.56;99353.25;5043475;28;20036;-65
2024/01/17 08:28:47;;;;;;;21.07;11.27;;;;;;;-3.23;96.40;99344.38;5049918;28;20032;-65
2024/01/17 08:31:13;;;;;;;24.10;11.50;;;;;;;-3.22;96.45;99343.44;5049253;28;20031;-65
2024/01/17 08:33:39;;;;;;;20.10;11.27;;;;;;;-3.20;96.41;99331.16;5043595;28;20539;-65
2024/01/17 08:36:07;;;;;;;18.93;11.37;;;;;;;-3.17;96.34;99325.75;5045734;28;20027;-65
2024/01/17 08:38:32;;;;;;;19.43;10.90;;;;;;;-3.18;96.31;99305.06;5054252;28;20536;-66
2024/01/17 08:40:57;;;;;;;19.60;11.07;;;;;;;-3.13;96.10;99311.59;5047076;28;20028;-66
2024/01/17 08:43:23;;;;;;;20.33;11.23;;;;;;;-3.11;96.22;99316.66;5052693;28;20032;-66
2024/01/17 08:45:48;;;;;;;22.17;11.03;;;;;;;-3.12;96.12;99309.81;5041578;28;20029;-65
2024/01/17 08:48:14;;;;;;;18.03;10.17;;;;;;;-3.10;96.04;99300.13;5050874;28;20099;-66
2024/01/17 08:50:39;;;;;;;18.53;10.23;;;;;;;-3.09;95.99;99293.16;5041448;28;20397;-66
2024/01/17 08:53:05;;;;;;;23.60;11.67;;;;;;;-3.05;95.81;99292.78;5040133;28;20067;-66
2024/01/17 08:55:31;;;;;;;20.83;11.33;;;;;;;-3.02;95.92;99281.34;5044334;28;20025;-66
2024/01/17 08:57:57;;;;;;;18.93;11.70;;;;;;;-3.02;95.86;99284.75;5040238;28;20763;-66
2024/01/17 09:00:22;;;;;;;21.33;11.57;;;;;;;-3.01;95.60;99280.38;5043362;28;20091;-65
2024/01/17 09:02:47;;;;;;;25.13;12.73;;;;;;;-3.01;95.51;99276.00;5041071;28;20024;-65
2024/01/17 09:05:12;;;;;;;21.33;11.87;;;;;;;-3.02;95.51;99268.34;5044729;28;20089;-66
2024/01/17 09:07:38;;;;;;;24.63;12.93;;;;;;;-2.95;95.51;99266.91;5037492;28;20031;-65
2024/01/17 09:10:03;;;;;;;23.50;13.07;;;;;;;-2.96;95.48;99268.69;5038009;28;20504;-65
2024/01/17 09:12:29;;;;;;;24.53;13.33;;;;;;;-2.93;95.46;99263.22;5045046;28;20032;-66
2024/01/17 09:14:54;;;;;;;22.57;13.90;;;;;;;-2.91;95.17;99260.50;5044776;28;20024;-65
2024/01/17 09:17:20;;;;;;;22.10;13.47;;;;;;;-2.90;95.22;99252.59;5032213;28;20037;-66
2024/01/17 09:19:46;;;;;;;24.70;13.83;;;;;;;-2.85;95.31;99250.47;5040202;28;20028;-66
2024/01/17 09:22:12;;;;;;;27.13;14.20;;;;;;;-2.83;95.35;99245.16;5039525;28;20488;-65
2024/01/17 09:24:39;;;;;;;26.83;13.67;;;;;;;-2.77;95.28;99249.00;5036146;28;20025;-65
2024/01/17 09:27:04;;;;;;;24.37;13.90;;;;;;;-2.75;95.30;99247.13;5038372;28;20398;-66
2024/01/17 09:29:33;;;;;;;25.80;14.10;;;;;;;-2.72;95.25;99245.09;5045210;28;20021;-66
2024/01/17 09:31:59;;;;;;;23.30;13.75;;;;;;;-2.68;95.05;99245.66;5054567;28;20107;-66
2024/01/17 09:34:24;;;;;;;26.00;14.30;;;;;;;-2.65;94.99;99245.41;5044766;28;20100;-66
2024/01/17 09:36:50;;;;;;;21.17;13.33;;;;;;;-2.58;94.96;99249.16;5052858;28;20059;-66
2024/01/17 09:39:15;;;;;;;22.97;13.47;;;;;;;-2.57;94.79;99243.03;5049022;28;20028;-66
2024/01/17 09:41:41;;;;;;;26.30;14.40;;;;;;;-2.52;94.67;99241.69;5042349;28;20021;-66
2024/01/17 09:44:07;;;;;;;25.87;14.07;;;;;;;-2.47;94.80;99236.09;5044930;28;20437;-66
2024/01/17 09:46:34;;;;;;;29.33;14.63;;;;;;;-2.45;94.55;99238.56;5054994;28;20823;-66
2024/01/17 09:49:00;;;;;;;23.47;14.17;;;;;;;-2.40;94.54;99236.41;5046192;28;20047;-66
2024/01/17 09:51:27;;;;;;;20.20;13.67;;;;;;;-2.35;94.61;99237.66;5041836;28;20112;-66
2024/01/17 09:53:58;;;;;;;23.37;13.97;;;;;;;-2.32;94.54;99234.81;5047121;28;20580;-66
2024/01/17 09:56:25;;;;;;;24.00;14.10;;;;;;;-2.29;94.27;99231.97;5048899;28;20044;-64
2024/01/17 09:58:52;;;;;;;25.53;14.23;;;;;;;-2.28;94.22;99215.44;5045486;28;20025;-63
2024/01/17 10:01:20;;;;;;;21.87;13.73;;;;;;;-2.28;93.92;99223.22;5041588;28;20064;-63
2024/01/17 10:03:46;;;;;;;22.47;14.67;;;;;;;-2.28;93.62;99219.81;5049014;28;20040;-63
2024/01/17 10:06:15;;;;;;;23.50;13.57;;;;;;;-2.28;93.26;99215.44;5048962;28;20051;-63
2024/01/17 10:08:42;;;;;;;27.13;14.38;;;;;;;-2.27;93.19;99217.06;5042033;28;20037;-63
2024/01/17 10:11:07;;;;;;;26.27;14.33;;;;;;;-2.25;92.84;99209.97;5041731;28;20033;-66
2024/01/17 10:13:33;;;;;;;23.23;14.70;;;;;;;-2.25;92.93;99212.56;5052520;28;20039;-66
2024/01/17 10:16:03;;;;;;;26.70;15.50;;;;;;;-2.21;92.85;99213.94;5039582;28;20811;-66
2024/01/17 10:18:29;;;;;;;27.93;15.17;;;;;;;-2.16;92.98;99210.97;5047084;28;20149;-65
2024/01/17 10:20:54;;;;;;;23.97;14.53;;;;;;;-2.11;93.05;99210.56;5030837;28;20071;-66
2024/01/17 10:23:20;;;;;;;24.83;15.23;;;;;;;-2.08;92.79;99202.50;5042737;28;20086;-66
2024/01/17 10:25:45;;;;;;;27.67;15.80;;;;;;;-2.03;93.10;99195.13;5037562;28;20036;-65
2024/01/17 10:28:11;;;;;;;23.93;15.43;;;;;;;-1.98;92.67;99192.97;5044682;28;20119;-66
2024/01/17 10:30:37;;;;;;;21.23;14.43;;;;;;;-1.94;92.84;99189.16;5043871;28;20040;-66
2024/01/17 10:33:03;;;;;;;25.00;15.47;;;;;;;-1.90;92.64;99190.53;5043644;28;20021;-66
2024/01/17 10:35:30;;;;;;;22.93;14.33;;;;;;;-1.90;92.44;99178.34;5052637;28;20028;-66
2024/01/17 10:37:56;;;;;;;21.30;14.87;;;;;;;-1.83;92.26;99186.44;5045195;28;20039;-66
2024/01/17 10:40:21;;;;;;;22.47;14.97;;;;;;;-1.82;92.23;99182.88;5046396;28;20561;-66
2024/01/17 10:42:46;;;;;;;24.53;14.53;;;;;;;-1.81;91.85;99178.50;5049719;28;20494;-66
2024/01/17 10:45:20;;;;;;;20.97;13.70;;;;;;;-1.77;91.86;99180.69;5049025;28;20130;-66
2024/01/17 10:47:46;;;;;;;21.33;14.07;;;;;;;-1.75;91.71;99164.94;5045899;28;20040;-66
2024/01/17 10:50:12;;;;;;;23.50;14.27;;;;;;;-1.72;91.17;99168.13;5050020;28;20029;-66
2024/01/17 10:52:40;;;;;;;23.30;13.90;;;;;;;-1.70;91.30;99153.22;5038952;28;20029;-66
2024/01/17 10:55:08;;;;;;;23.73;13.90;;;;;;;-1.63;91.06;99161.31;5039817;28;20040;-66
2024/01/17 10:57:36;;;;;;;23.70;14.43;;;;;;;-1.59;91.25;99147.06;5047289;28;20433;-66
2024/01/17 11:00:03;;;;;;;22.20;13.97;;;;;;;-1.53;91.26;99143.91;5049258;28;20070;-66
2024/01/17 11:02:31;;;;;;;21.73;13.87;;;;;;;-1.53;90.95;99130.91;5041758;28;20514;-66
2024/01/17 11:05:07;;;;;;;26.67;15.03;;;;;;;-1.47;90.89;99129.53;5045422;28;20635;-66
2024/01/17 11:07:34;;;;;;;22.57;14.23;;;;;;;-1.45;91.08;99122.41;5039162;28;20121;-66
2024/01/17 11:10:05;;;;;;;20.90;13.43;;;;;;;-1.44;90.74;99116.25;5047043;28;20029;-67